createdAt,value
2019-06-20T00:01:34.392Z,84.42
2019-06-20T00:04:02.871Z,85.40
2019-06-20T00:06:31.267Z,86.17
2019-06-20T00:08:59.659Z,86.88
2019-06-20T00:11:28.254Z,87.10
2019-06-20T00:13:56.658Z,87.22
2019-06-20T00:16:25.042Z,87.59
2019-06-20T00:18:53.442Z,86.69
2019-06-20T00:21:22.244Z,85.26
2019-06-20T00:23:50.653Z,85.27
2019-06-20T00:26:19.054Z,84.87
2019-06-20T00:28:47.488Z,84.18
2019-06-20T00:31:15.888Z,83.01
2019-06-20T00:33:44.291Z,82.58
2019-06-20T00:36:12.703Z,82.82
2019-06-20T00:38:41.099Z,83.73
2019-06-20T00:41:09.580Z,84.45
2019-06-20T00:43:37.998Z,85.85
2019-06-20T00:46:06.381Z,86.98
2019-06-20T00:48:34.822Z,87.56
2019-06-20T00:51:03.219Z,88.56
2019-06-20T00:53:31.631Z,88.41
2019-06-20T00:56:00.034Z,89.10
2019-06-20T00:58:28.426Z,88.55
2019-06-20T01:00:57.108Z,88.79
2019-06-20T01:03:25.492Z,88.13
2019-06-20T01:05:53.908Z,87.20
2019-06-20T01:08:22.313Z,86.63
2019-06-20T01:10:51.246Z,86.97
2019-06-20T01:13:32.507Z,87.27
2019-06-20T01:15:49.718Z,86.29
2019-06-20T01:18:18.120Z,85.67
2019-06-20T01:20:46.909Z,85.64
2019-06-20T01:23:15.339Z,86.52
2019-06-20T01:25:44.369Z,87.13
2019-06-20T01:28:12.760Z,86.88
2019-06-20T01:30:41.403Z,85.85
2019-06-20T01:33:09.864Z,85.06
2019-06-20T01:35:38.281Z,85.61
2019-06-20T01:38:06.746Z,86.79
2019-06-20T01:40:35.144Z,88.41
2019-06-20T01:43:03.901Z,88.14
2019-06-20T01:45:32.311Z,88.42
2019-06-20T01:48:00.702Z,89.09
2019-06-20T01:50:29.104Z,89.12
2019-06-20T01:52:57.504Z,89.23
2019-06-20T01:55:26.231Z,89.60
2019-06-20T01:57:54.626Z,90.18
2019-06-20T02:00:47.189Z,90.85
2019-06-20T02:03:16.324Z,90.60
2019-06-20T02:05:45.055Z,90.63
2019-06-20T02:08:13.556Z,90.96
2019-06-20T02:10:41.956Z,91.34
2019-06-20T02:13:10.637Z,90.75
2019-06-20T02:15:39.056Z,90.89
2019-06-20T02:18:07.431Z,91.05
2019-06-20T02:20:39.117Z,91.33
2019-06-20T02:23:08.083Z,89.82
2019-06-20T02:25:36.733Z,88.76
2019-06-20T02:28:05.592Z,87.42
2019-06-20T02:30:34.093Z,87.25
2019-06-20T02:33:03.068Z,86.35
2019-06-20T02:35:31.463Z,85.64
2019-06-20T02:37:59.915Z,85.62
2019-06-20T02:40:28.305Z,86.37
2019-06-20T02:42:56.700Z,86.72
2019-06-20T02:45:25.169Z,86.83
2019-06-20T02:47:53.570Z,86.89
2019-06-20T02:50:22.148Z,86.01
2019-06-20T02:52:50.545Z,86.45
2019-06-20T02:55:19.461Z,87.00
2019-06-20T02:57:47.823Z,87.32
2019-06-20T03:00:18.093Z,87.40
2019-06-20T03:02:46.484Z,87.72
2019-06-20T03:05:15.133Z,87.90
2019-06-20T03:07:43.525Z,87.78
2019-06-20T03:10:12.159Z,87.96
2019-06-20T03:12:40.559Z,87.95
2019-06-20T03:15:09.222Z,88.41
2019-06-20T03:17:37.629Z,88.60
2019-06-20T03:20:06.318Z,88.13
2019-06-20T03:22:35.037Z,87.36
2019-06-20T03:25:03.824Z,87.31
2019-06-20T03:27:32.728Z,87.66
2019-06-20T03:30:01.154Z,87.86
2019-06-20T03:32:29.559Z,88.19
2019-06-20T03:34:57.984Z,88.57
2019-06-20T03:37:26.891Z,88.68
2019-06-20T03:39:55.262Z,88.88
2019-06-20T03:42:23.651Z,89.11
2019-06-20T03:45:01.607Z,89.54
2019-06-20T03:47:22.185Z,89.83
2019-06-20T03:49:50.832Z,89.91
2019-06-20T03:52:19.225Z,90.04
2019-06-20T03:54:47.621Z,90.15
2019-06-20T03:57:16.015Z,90.40
2019-06-20T03:59:44.411Z,90.21
2019-06-20T04:02:12.811Z,89.99
2019-06-20T04:04:41.343Z,90.02
2019-06-20T04:07:09.846Z,90.18
2019-06-20T04:09:38.250Z,90.13
2019-06-20T04:12:06.999Z,90.01
2019-06-20T04:14:35.463Z,89.27
2019-06-20T04:17:03.876Z,89.21
2019-06-20T04:19:32.274Z,89.38
2019-06-20T04:22:00.670Z,89.02
2019-06-20T04:24:29.087Z,89.03
2019-06-20T04:26:57.529Z,88.90
2019-06-20T04:29:25.915Z,88.47
2019-06-20T04:31:54.310Z,87.85
2019-06-20T04:34:22.709Z,87.50
2019-06-20T04:36:51.100Z,87.46
2019-06-20T04:39:19.887Z,87.37
2019-06-20T04:41:48.295Z,86.63
2019-06-20T04:44:16.700Z,86.79
2019-06-20T04:46:55.955Z,86.73
2019-06-20T04:49:24.350Z,86.64
2019-06-20T04:51:52.744Z,86.56
2019-06-20T04:54:21.412Z,86.53
2019-06-20T04:56:50.183Z,86.35
2019-06-20T04:59:18.619Z,86.19
2019-06-20T05:01:47.013Z,86.72
2019-06-20T05:04:15.409Z,86.81
2019-06-20T05:06:46.866Z,87.24
2019-06-20T05:09:15.257Z,86.94
2019-06-20T05:11:43.678Z,86.91
2019-06-20T05:14:12.071Z,86.63
2019-06-20T05:16:40.457Z,86.52
2019-06-20T05:19:08.855Z,86.26
2019-06-20T05:21:37.251Z,86.21
2019-06-20T05:24:05.749Z,86.28
2019-06-20T05:26:34.157Z,86.38
2019-06-20T05:29:05.376Z,85.85
2019-06-20T05:31:32.978Z,85.48
2019-06-20T05:34:01.366Z,85.42
2019-06-20T05:36:29.866Z,84.97
2019-06-20T05:38:58.259Z,84.23
2019-06-20T05:41:26.661Z,84.30
2019-06-20T05:43:55.060Z,83.70
2019-06-20T05:46:23.462Z,82.67
2019-06-20T05:48:51.873Z,82.59
2019-06-20T05:51:20.281Z,81.19
2019-06-20T05:53:48.660Z,81.59
2019-06-20T05:56:17.070Z,80.43
2019-06-20T05:58:46.024Z,80.43
2019-06-20T06:01:14.447Z,81.13
2019-06-20T06:03:44.995Z,83.56
2019-06-20T06:06:13.729Z,78.41
2019-06-20T06:08:42.132Z,77.60
2019-06-20T06:11:10.536Z,75.60
2019-06-20T06:13:39.285Z,74.69
2019-06-20T06:16:07.680Z,74.63
2019-06-20T06:18:36.154Z,73.37
2019-06-20T06:21:05.703Z,72.34
2019-06-20T06:23:34.089Z,72.82
2019-06-20T06:26:02.499Z,73.39
2019-06-20T06:28:30.887Z,73.29
2019-06-20T06:30:59.348Z,74.59
2019-06-20T06:33:27.754Z,74.40
2019-06-20T06:35:56.164Z,74.60
2019-06-20T06:38:24.611Z,74.32
2019-06-20T06:40:52.979Z,74.16
2019-06-20T06:43:21.454Z,74.72
2019-06-20T06:45:50.239Z,74.86
2019-06-20T06:48:18.708Z,75.13
2019-06-20T06:50:47.123Z,75.30
2019-06-20T06:53:15.518Z,75.16
2019-06-20T06:55:43.913Z,74.25
2019-06-20T06:58:12.667Z,74.17
2019-06-20T07:00:41.083Z,74.07
2019-06-20T07:03:09.840Z,74.13
2019-06-20T07:05:38.273Z,73.86
2019-06-20T07:08:06.646Z,73.78
2019-06-20T07:10:35.040Z,72.87
2019-06-20T07:13:03.482Z,72.62
2019-06-20T07:15:32.046Z,72.94
2019-06-20T07:18:00.442Z,73.33
2019-06-20T07:20:28.844Z,73.07
2019-06-20T07:22:57.248Z,72.48
2019-06-20T07:25:25.654Z,71.41
2019-06-20T07:27:54.601Z,71.81
2019-06-20T07:30:23.395Z,72.48
2019-06-20T07:32:51.872Z,72.29
2019-06-20T07:35:20.448Z,71.93
2019-06-20T07:37:48.822Z,71.28
2019-06-20T07:40:17.524Z,71.68
2019-06-20T07:42:46.213Z,72.33
2019-06-20T07:45:15.173Z,70.78
2019-06-20T07:47:43.591Z,70.50
2019-06-20T07:50:12.311Z,70.60
2019-06-20T07:52:40.712Z,69.40
2019-06-20T07:55:09.578Z,68.93
2019-06-20T07:57:37.983Z,68.71
2019-06-20T08:00:07.908Z,67.66
2019-06-20T08:02:36.361Z,66.32
2019-06-20T08:05:07.285Z,66.44
2019-06-20T08:07:35.754Z,66.63
2019-06-20T08:10:12.958Z,64.91
2019-06-20T08:12:41.376Z,65.02
2019-06-20T08:15:15.461Z,66.22
2019-06-20T08:17:40.847Z,66.51
2019-06-20T08:20:10.978Z,66.81
2019-06-20T08:22:39.852Z,66.87
2019-06-20T08:25:10.971Z,67.69
2019-06-20T08:27:52.768Z,67.48
2019-06-20T08:30:24.645Z,67.61
2019-06-20T08:32:53.734Z,66.78
2019-06-20T08:35:24.176Z,68.14
2019-06-20T08:37:53.904Z,67.08
2019-06-20T08:40:23.724Z,64.65
2019-06-20T08:42:52.454Z,64.58
2019-06-20T08:45:21.558Z,64.32
2019-06-20T08:47:50.069Z,64.13
2019-06-20T08:50:19.091Z,64.45
2019-06-20T08:52:47.476Z,62.59
2019-06-20T08:55:17.036Z,62.44
2019-06-20T08:57:45.511Z,62.58
2019-06-20T09:00:15.800Z,61.86
2019-06-20T09:02:44.203Z,61.06
2019-06-20T09:05:13.739Z,59.48
2019-06-20T09:07:42.567Z,58.49
2019-06-20T09:10:12.516Z,57.56
2019-06-20T09:12:41.001Z,58.02
2019-06-20T09:15:10.110Z,58.79
2019-06-20T09:17:38.863Z,58.89
2019-06-20T09:20:10.323Z,58.81
2019-06-20T09:22:38.737Z,57.61
2019-06-20T09:25:07.871Z,59.12
2019-06-20T09:27:36.912Z,59.22
2019-06-20T09:30:09.823Z,59.21
2019-06-20T09:32:38.557Z,58.19
2019-06-20T09:35:10.607Z,57.95
2019-06-20T09:37:39.173Z,58.38
2019-06-20T09:40:08.424Z,58.41
2019-06-20T09:42:37.348Z,56.76
2019-06-20T09:45:11.182Z,56.56
2019-06-20T09:47:39.861Z,55.69
2019-06-20T09:50:12.801Z,57.04
2019-06-20T09:52:41.429Z,55.04
2019-06-20T09:55:10.760Z,55.53
2019-06-20T09:57:39.284Z,54.79
2019-06-20T10:00:13.481Z,56.09
2019-06-20T10:02:41.936Z,53.83
2019-06-20T10:05:11.075Z,55.62
2019-06-20T10:07:39.640Z,54.96
2019-06-20T10:10:12.655Z,51.80
2019-06-20T10:12:41.186Z,52.14
2019-06-20T10:15:22.201Z,51.16
2019-06-20T10:17:51.509Z,51.14
2019-06-20T10:20:20.843Z,51.19
2019-06-20T10:22:49.276Z,51.19
2019-06-20T10:25:17.901Z,51.56
2019-06-20T10:27:47.912Z,51.06
2019-06-20T10:30:17.713Z,48.90
2019-06-20T10:32:46.764Z,48.32
2019-06-20T10:35:15.420Z,48.68
2019-06-20T10:37:45.566Z,49.80
2019-06-20T10:40:15.525Z,52.44
2019-06-20T10:42:44.982Z,55.25
2019-06-20T10:45:15.376Z,58.44
2019-06-20T10:47:45.395Z,59.62
2019-06-20T10:50:15.103Z,61.75
2019-06-20T10:52:43.673Z,61.71
2019-06-20T10:55:12.719Z,66.14
2019-06-20T10:57:41.856Z,67.74
2019-06-20T11:00:13.181Z,67.97
2019-06-20T11:02:43.311Z,67.47
2019-06-20T11:05:12.174Z,70.60
2019-06-20T11:07:42.072Z,69.62
2019-06-20T11:10:12.648Z,70.46
2019-06-20T11:12:47.918Z,69.07
2019-06-20T11:15:11.902Z,72.15
2019-06-20T11:17:41.896Z,67.22
2019-06-20T11:20:12.494Z,66.72
2019-06-20T11:22:41.612Z,64.54
2019-06-20T11:25:10.758Z,67.21
2019-06-20T11:27:40.518Z,65.55
2019-06-20T11:30:14.768Z,65.31
2019-06-20T11:32:43.519Z,65.91
2019-06-20T11:35:12.378Z,66.91
2019-06-20T11:37:42.266Z,64.31
2019-06-20T11:40:11.305Z,62.96
2019-06-20T11:42:40.021Z,63.25
2019-06-20T11:45:09.398Z,64.35
2019-06-20T11:47:38.284Z,61.68
2019-06-20T11:50:07.657Z,62.48
2019-06-20T11:52:41.006Z,62.75
2019-06-20T11:55:07.467Z,61.08
2019-06-20T11:57:35.864Z,58.94
2019-06-20T12:00:06.467Z,59.33
2019-06-20T12:02:34.844Z,59.29
2019-06-20T12:05:04.708Z,59.37
2019-06-20T12:07:33.123Z,58.27
2019-06-20T12:10:01.517Z,56.31
2019-06-20T12:12:29.911Z,57.49
2019-06-20T12:14:58.310Z,57.05
2019-06-20T12:17:27.086Z,57.87
2019-06-20T12:19:55.516Z,54.57
2019-06-20T12:22:24.257Z,54.91
2019-06-20T12:24:52.656Z,52.99
2019-06-20T12:27:21.049Z,53.88
2019-06-20T12:29:49.451Z,52.47
2019-06-20T12:32:19.518Z,51.65
2019-06-20T12:34:49.023Z,53.36
2019-06-20T12:37:17.503Z,67.19
2019-06-20T12:39:46.362Z,77.72
2019-06-20T12:42:14.838Z,81.77
2019-06-20T12:44:44.176Z,78.45
2019-06-20T12:47:12.751Z,75.35
2019-06-20T12:49:41.790Z,75.76
2019-06-20T12:52:10.270Z,75.95
2019-06-20T12:54:40.970Z,77.29
2019-06-20T12:57:08.816Z,74.71
2019-06-20T12:59:38.052Z,73.36
2019-06-20T13:02:08.483Z,76.55
2019-06-20T13:04:38.220Z,76.31
2019-06-20T13:07:07.188Z,76.80
2019-06-20T13:09:36.052Z,74.70
2019-06-20T13:12:04.443Z,75.13
2019-06-20T13:14:32.839Z,80.03
2019-06-20T13:17:01.241Z,76.16
2019-06-20T13:19:29.646Z,73.01
2019-06-20T13:21:58.057Z,73.73
2019-06-20T13:24:26.458Z,75.66
2019-06-20T13:26:54.862Z,71.06
2019-06-20T13:29:27.719Z,71.43
2019-06-20T13:32:03.891Z,72.20
2019-06-20T13:34:26.270Z,70.90
2019-06-20T13:36:54.672Z,72.82
2019-06-20T13:39:23.090Z,75.29
2019-06-20T13:41:51.480Z,75.31
2019-06-20T13:44:21.663Z,75.72
2019-06-20T13:46:50.302Z,74.56
2019-06-20T13:49:18.764Z,70.29
2019-06-20T13:51:47.711Z,70.81
2019-06-20T13:54:16.173Z,70.15
2019-06-20T13:56:45.349Z,69.82
2019-06-20T13:59:14.105Z,67.42
2019-06-20T14:01:44.074Z,67.56
2019-06-20T14:04:17.368Z,67.73
2019-06-20T14:06:47.278Z,67.73
2019-06-20T14:09:15.762Z,65.95
2019-06-20T14:11:45.376Z,66.78
2019-06-20T14:14:13.883Z,64.08
2019-06-20T14:16:43.030Z,65.09
2019-06-20T14:19:11.461Z,63.87
2019-06-20T14:21:40.199Z,61.73
2019-06-20T14:24:08.617Z,62.53
2019-06-20T14:26:37.013Z,63.16
2019-06-20T14:29:05.482Z,64.45
2019-06-20T14:31:33.893Z,61.39
2019-06-20T14:34:02.378Z,62.53
2019-06-20T14:36:30.809Z,62.54
2019-06-20T14:38:59.194Z,59.58
2019-06-20T14:41:27.586Z,57.42
2019-06-20T14:43:55.987Z,56.02
2019-06-20T14:46:24.388Z,56.00
2019-06-20T14:48:52.785Z,53.63
2019-06-20T14:51:21.190Z,53.68
2019-06-20T14:53:49.580Z,54.06
2019-06-20T14:56:18.350Z,55.61
2019-06-20T14:58:46.876Z,56.59
2019-06-20T15:01:15.294Z,57.63
2019-06-20T15:03:45.637Z,58.97
2019-06-20T15:06:13.811Z,61.45
2019-06-20T15:08:42.214Z,63.73
2019-06-20T15:11:12.257Z,65.51
2019-06-20T15:13:40.747Z,63.75
2019-06-20T15:16:09.142Z,64.70
2019-06-20T15:18:37.577Z,65.15
2019-06-20T15:21:06.769Z,66.53
2019-06-20T15:23:35.162Z,65.98
2019-06-20T15:26:03.560Z,67.27
2019-06-20T15:28:32.874Z,67.95
2019-06-20T15:31:01.338Z,67.15
2019-06-20T15:33:29.734Z,68.16
2019-06-20T15:35:58.438Z,65.16
2019-06-20T15:38:26.832Z,66.35
2019-06-20T15:40:55.466Z,66.40
2019-06-20T15:43:24.016Z,64.48
2019-06-20T15:45:53.743Z,65.64
2019-06-20T15:48:22.310Z,65.63
2019-06-20T15:50:50.717Z,63.55
2019-06-20T15:53:19.114Z,63.98
2019-06-20T15:55:47.515Z,65.98
2019-06-20T15:58:15.905Z,65.19
2019-06-20T16:00:44.336Z,64.11
2019-06-20T16:03:14.631Z,64.88
2019-06-20T16:05:43.009Z,63.29
2019-06-20T16:08:11.407Z,62.82
2019-06-20T16:10:40.666Z,61.46
2019-06-20T16:13:09.139Z,64.49
2019-06-20T16:15:37.579Z,62.48
2019-06-20T16:20:33.375Z,64.32
2019-06-20T16:23:01.793Z,62.71
2019-06-20T16:25:30.174Z,62.51
2019-06-20T16:27:58.573Z,62.66
2019-06-20T16:30:27.311Z,62.32
2019-06-20T16:32:56.372Z,62.72
2019-06-20T16:35:25.342Z,61.40
2019-06-20T16:37:53.728Z,63.17
2019-06-20T16:40:40.797Z,61.53
2019-06-20T16:43:09.199Z,63.64
2019-06-20T16:48:05.106Z,59.66
2019-06-20T16:50:33.486Z,60.21
2019-06-20T16:53:01.902Z,60.14
2019-06-20T16:55:30.292Z,58.24
2019-06-20T16:57:58.720Z,58.06
2019-06-20T17:00:27.248Z,60.07
2019-06-20T17:02:56.009Z,60.93
2019-06-20T17:05:24.515Z,61.35
2019-06-20T17:07:52.887Z,59.56
2019-06-20T17:10:23.125Z,58.21
2019-06-20T17:12:51.523Z,59.29
2019-06-20T17:15:20.593Z,58.30
2019-06-20T17:17:49.030Z,58.55
2019-06-20T17:20:17.944Z,59.51
2019-06-20T17:22:46.351Z,59.33
2019-06-20T17:25:15.179Z,57.84
2019-06-20T17:27:43.683Z,58.75
2019-06-20T17:30:14.318Z,58.84
2019-06-20T17:32:42.710Z,56.65
2019-06-20T17:35:12.146Z,57.76
2019-06-20T17:37:40.561Z,57.54
2019-06-20T17:40:10.453Z,58.65
2019-06-20T17:42:39.343Z,58.33
2019-06-20T17:45:09.817Z,59.91
2019-06-20T17:47:38.207Z,58.84
2019-06-20T17:50:08.892Z,58.54
2019-06-20T17:52:37.278Z,58.69
2019-06-20T17:55:08.624Z,59.28
2019-06-20T17:57:37.318Z,60.33
2019-06-20T18:00:11.531Z,60.76
2019-06-20T18:02:39.996Z,61.58
2019-06-20T18:05:08.832Z,61.64
2019-06-20T18:07:37.316Z,62.59
2019-06-20T18:10:07.048Z,63.06
2019-06-20T18:12:35.445Z,63.35
2019-06-20T18:15:05.274Z,63.24
2019-06-20T18:17:33.677Z,64.35
2019-06-20T18:20:02.083Z,64.12
2019-06-20T18:22:30.492Z,64.02
2019-06-20T18:24:58.870Z,63.94
2019-06-20T18:27:27.350Z,64.80
2019-06-20T18:29:55.728Z,64.82
2019-06-20T18:32:24.128Z,65.75
2019-06-20T18:35:02.060Z,64.37
2019-06-20T18:37:31.322Z,65.60
2019-06-20T18:39:52.851Z,65.95
2019-06-20T18:42:21.259Z,66.34
2019-06-20T18:44:49.679Z,65.16
2019-06-20T18:47:18.067Z,66.46
2019-06-20T18:49:46.465Z,66.69
2019-06-20T18:52:14.866Z,67.75
2019-06-20T18:54:43.270Z,67.61
2019-06-20T18:57:11.661Z,67.87
2019-06-20T18:59:40.109Z,68.10
2019-06-20T19:02:08.546Z,66.99
2019-06-20T19:04:47.785Z,65.86
2019-06-20T19:07:07.078Z,66.81
2019-06-20T19:09:35.505Z,67.25
2019-06-20T19:12:04.768Z,68.10
2019-06-20T19:14:33.161Z,68.34
2019-06-20T19:17:01.558Z,68.29
2019-06-20T19:19:30.763Z,68.30
2019-06-20T19:21:59.183Z,68.26
2019-06-20T19:24:27.933Z,68.40
2019-06-20T19:26:56.328Z,68.98
2019-06-20T19:29:24.729Z,69.46
2019-06-20T19:31:53.130Z,70.38
2019-06-20T19:34:21.630Z,71.09
2019-06-20T19:36:50.003Z,71.45
2019-06-20T19:39:18.427Z,71.88
2019-06-20T19:41:46.836Z,72.50
2019-06-20T19:44:15.230Z,72.81
2019-06-20T19:46:43.776Z,73.49
2019-06-20T19:49:12.408Z,73.75
2019-06-20T19:51:40.802Z,74.06
2019-06-20T19:54:09.209Z,74.25
2019-06-20T19:56:37.605Z,72.93
2019-06-20T19:59:06.199Z,73.50
2019-06-20T20:01:35.597Z,74.17
2019-06-20T20:04:04.374Z,74.76
2019-06-20T20:06:32.838Z,74.93
2019-06-20T20:09:01.236Z,76.18
2019-06-20T20:11:29.718Z,75.89
2019-06-20T20:13:58.111Z,76.04
2019-06-20T20:16:26.499Z,75.72
2019-06-20T20:18:54.916Z,75.05
2019-06-20T20:21:23.375Z,74.78
2019-06-20T20:23:51.796Z,74.64
2019-06-20T20:26:20.200Z,74.95
2019-06-20T20:28:48.591Z,74.86
2019-06-20T20:31:16.993Z,74.88
2019-06-20T20:33:45.394Z,74.78
2019-06-20T20:36:24.368Z,74.47
2019-06-20T20:38:43.931Z,74.64
2019-06-20T20:41:12.330Z,75.43
2019-06-20T20:43:40.724Z,76.04
2019-06-20T20:46:09.158Z,76.63
2019-06-20T20:48:37.553Z,76.61
2019-06-20T20:51:05.946Z,76.40
2019-06-20T20:53:34.351Z,76.69
2019-06-20T20:56:02.751Z,76.91
2019-06-20T20:58:31.172Z,77.43
2019-06-20T21:01:02.610Z,77.47
2019-06-20T21:03:31.041Z,78.05
2019-06-20T21:05:59.431Z,78.36
2019-06-20T21:08:27.894Z,78.47
2019-06-20T21:10:56.291Z,77.78
2019-06-20T21:13:24.768Z,77.80
2019-06-20T21:15:53.476Z,77.62
2019-06-20T21:18:21.903Z,77.62
2019-06-20T21:20:50.294Z,78.59
2019-06-20T21:23:18.751Z,78.82
2019-06-20T21:25:47.172Z,79.36
2019-06-20T21:28:15.568Z,79.59
2019-06-20T21:30:43.992Z,79.20
2019-06-20T21:33:12.400Z,78.90
2019-06-20T21:35:41.363Z,78.90
2019-06-20T21:38:09.786Z,78.70
2019-06-20T21:40:38.445Z,79.38
2019-06-20T21:43:06.850Z,79.42
2019-06-20T21:45:36.033Z,79.74
2019-06-20T21:48:05.127Z,79.79
2019-06-20T21:50:33.539Z,80.07
2019-06-20T21:53:01.932Z,80.49
2019-06-20T21:55:30.355Z,80.04
2019-06-20T21:57:58.749Z,80.29
2019-06-20T22:00:31.848Z,80.82
2019-06-20T22:03:00.286Z,79.52
2019-06-20T22:05:28.661Z,78.47
2019-06-20T22:07:57.067Z,78.47
2019-06-20T22:10:25.815Z,78.16
2019-06-20T22:12:54.235Z,78.38
2019-06-20T22:15:22.615Z,78.38
2019-06-20T22:17:51.418Z,78.61
2019-06-20T22:20:20.352Z,78.51
2019-06-20T22:22:48.786Z,78.92
2019-06-20T22:25:17.726Z,78.99
2019-06-20T22:27:48.195Z,78.85
2019-06-20T22:30:17.649Z,79.27
2019-06-20T22:32:46.044Z,79.14
2019-06-20T22:35:14.967Z,78.72
2019-06-20T22:37:43.375Z,78.37
2019-06-20T22:40:12.295Z,78.94
2019-06-20T22:42:40.693Z,79.35
2019-06-20T22:45:10.494Z,78.00
2019-06-20T22:47:39.001Z,77.68
2019-06-20T22:50:08.542Z,78.00
2019-06-20T22:52:36.940Z,78.48
2019-06-20T22:55:06.872Z,77.86
2019-06-20T22:57:35.261Z,76.92
2019-06-20T23:00:06.311Z,76.99
2019-06-20T23:02:34.699Z,78.22
2019-06-20T23:05:03.311Z,78.22
2019-06-20T23:07:31.671Z,77.64
2019-06-20T23:10:09.916Z,77.35
2019-06-20T23:12:30.755Z,78.03
2019-06-20T23:14:59.146Z,77.22
2019-06-20T23:17:27.577Z,77.25
2019-06-20T23:19:55.994Z,77.56
2019-06-20T23:22:24.383Z,77.83
2019-06-20T23:24:52.800Z,78.61
2019-06-20T23:27:21.337Z,78.51
2019-06-20T23:29:49.726Z,78.59
2019-06-20T23:32:18.194Z,78.74
2019-06-20T23:34:46.599Z,78.63
2019-06-20T23:37:15.562Z,78.99
2019-06-20T23:39:43.969Z,79.40
2019-06-20T23:42:12.364Z,80.08
2019-06-20T23:44:40.753Z,80.55
2019-06-20T23:47:09.160Z,80.23
2019-06-20T23:49:37.552Z,79.77
2019-06-20T23:52:08.083Z,79.46
2019-06-20T23:54:36.434Z,79.77
2019-06-20T23:57:04.890Z,80.16
2019-06-20T23:59:33.331Z,80.12
